createdAt,value
2018-03-26T00:01:35.154Z,20.13
2018-03-26T00:04:02.068Z,20.16
2018-03-26T00:06:28.993Z,20.15
2018-03-26T00:08:55.916Z,20.17
2018-03-26T00:11:22.866Z,20.19
2018-03-26T00:13:49.784Z,20.18
2018-03-26T00:16:16.714Z,20.19
2018-03-26T00:18:43.637Z,20.20
2018-03-26T00:21:10.567Z,20.20
2018-03-26T00:23:37.493Z,20.18
2018-03-26T00:26:04.408Z,20.16
2018-03-26T00:28:31.359Z,20.15
2018-03-26T00:30:58.283Z,20.11
2018-03-26T00:33:25.217Z,20.11
2018-03-26T00:35:52.166Z,20.07
2018-03-26T00:38:19.089Z,20.06
2018-03-26T00:40:46.011Z,20.05
2018-03-26T00:43:12.935Z,20.04
2018-03-26T00:45:39.857Z,20.03
2018-03-26T00:48:06.787Z,20.04
2018-03-26T00:50:33.708Z,20.04
2018-03-26T00:53:00.633Z,20.04
2018-03-26T00:55:27.562Z,20.02
2018-03-26T00:57:54.523Z,20.03
2018-03-26T01:00:21.447Z,20.01
2018-03-26T01:02:48.367Z,20.01
2018-03-26T01:05:15.297Z,20.02
2018-03-26T01:07:42.248Z,20.04
2018-03-26T01:10:09.172Z,20.09
2018-03-26T01:12:36.088Z,20.13
2018-03-26T01:15:03.024Z,20.17
2018-03-26T01:17:29.942Z,20.22
2018-03-26T01:19:56.886Z,20.21
2018-03-26T01:22:23.808Z,20.19
2018-03-26T01:24:50.764Z,20.20
2018-03-26T01:27:17.685Z,20.22
2018-03-26T01:29:44.603Z,20.23
2018-03-26T01:32:11.530Z,20.24
2018-03-26T01:34:38.455Z,20.27
2018-03-26T01:37:05.384Z,20.26
2018-03-26T01:39:32.303Z,20.26
2018-03-26T01:41:59.235Z,20.26
2018-03-26T01:44:26.160Z,20.24
2018-03-26T01:46:53.115Z,20.24
2018-03-26T01:49:20.034Z,20.23
2018-03-26T01:51:46.958Z,20.20
2018-03-26T01:54:13.887Z,20.17
2018-03-26T01:56:40.850Z,20.15
2018-03-26T01:59:07.731Z,20.13
2018-03-26T02:01:34.652Z,20.11
2018-03-26T02:04:01.579Z,20.07
2018-03-26T02:06:28.524Z,20.06
2018-03-26T02:08:55.440Z,20.06
2018-03-26T02:11:22.369Z,20.05
2018-03-26T02:13:49.287Z,20.05
2018-03-26T02:16:16.207Z,20.04
2018-03-26T02:18:43.128Z,20.03
2018-03-26T02:21:10.049Z,20.03
2018-03-26T02:23:36.971Z,20.01
2018-03-26T02:26:03.896Z,20.02
2018-03-26T02:28:30.831Z,20.03
2018-03-26T02:30:57.759Z,20.06
2018-03-26T02:33:24.682Z,20.12
2018-03-26T02:35:51.604Z,20.17
2018-03-26T02:38:18.544Z,20.18
2018-03-26T02:40:48.255Z,20.19
2018-03-26T02:43:17.063Z,20.20
2018-03-26T02:45:44.442Z,20.24
2018-03-26T02:48:11.397Z,20.28
2018-03-26T02:50:38.375Z,20.29
2018-03-26T02:53:06.276Z,20.31
2018-03-26T02:55:34.163Z,20.30
2018-03-26T02:58:01.947Z,20.29
2018-03-26T03:00:28.875Z,20.28
2018-03-26T03:02:56.762Z,20.30
2018-03-26T03:05:23.763Z,20.31
2018-03-26T03:07:50.812Z,20.31
2018-03-26T03:10:17.815Z,20.28
2018-03-26T03:12:46.601Z,20.27
2018-03-26T03:15:13.657Z,20.23
2018-03-26T03:17:40.709Z,20.22
2018-03-26T03:20:07.710Z,20.19
2018-03-26T03:22:34.778Z,20.17
2018-03-26T03:25:03.489Z,20.14
2018-03-26T03:27:30.481Z,20.13
2018-03-26T03:29:57.494Z,20.10
2018-03-26T03:32:25.420Z,20.08
2018-03-26T03:34:53.265Z,20.06
2018-03-26T03:37:21.093Z,20.06
2018-03-26T03:39:48.977Z,20.07
2018-03-26T03:42:16.380Z,20.10
2018-03-26T03:44:43.393Z,20.10
2018-03-26T03:47:10.688Z,20.09
2018-03-26T03:49:37.739Z,20.07
2018-03-26T03:52:05.600Z,20.08
2018-03-26T03:54:33.734Z,20.11
2018-03-26T03:57:01.603Z,20.14
2018-03-26T03:59:28.608Z,20.17
2018-03-26T04:01:55.660Z,20.21
2018-03-26T04:04:23.488Z,20.19
2018-03-26T04:06:51.413Z,20.24
2018-03-26T04:09:19.298Z,20.29
2018-03-26T04:11:46.219Z,20.31
2018-03-26T04:14:13.221Z,20.34
2018-03-26T04:16:41.058Z,20.35
2018-03-26T04:19:08.882Z,20.35
2018-03-26T04:21:36.832Z,20.34
2018-03-26T04:24:04.716Z,20.33
2018-03-26T04:26:32.607Z,20.32
2018-03-26T04:29:03.288Z,20.31
2018-03-26T04:31:32.019Z,20.28
2018-03-26T04:33:59.747Z,20.24
2018-03-26T04:36:27.007Z,20.20
2018-03-26T04:38:54.904Z,20.19
2018-03-26T04:41:21.927Z,20.22
2018-03-26T04:43:49.237Z,20.22
2018-03-26T04:46:17.108Z,20.18
2018-03-26T04:48:44.040Z,20.15
2018-03-26T04:51:11.927Z,20.13
2018-03-26T04:53:39.845Z,20.11
2018-03-26T04:56:06.889Z,20.11
2018-03-26T04:58:33.815Z,20.07
2018-03-26T05:01:00.815Z,20.05
2018-03-26T05:03:40.666Z,20.05
2018-03-26T05:06:07.692Z,20.04
2018-03-26T05:08:35.563Z,20.04
2018-03-26T05:11:02.574Z,20.03
2018-03-26T05:13:29.923Z,20.05
2018-03-26T05:15:56.935Z,20.07
2018-03-26T05:18:23.991Z,20.10
2018-03-26T05:20:51.794Z,20.11
2018-03-26T05:23:19.544Z,20.15
2018-03-26T05:25:46.536Z,20.16
2018-03-26T05:28:13.572Z,20.17
2018-03-26T05:30:41.292Z,20.17
2018-03-26T05:33:08.354Z,20.18
2018-03-26T05:35:36.219Z,20.17
2018-03-26T05:38:03.390Z,20.19
2018-03-26T05:40:30.461Z,20.18
2018-03-26T05:42:57.410Z,20.18
2018-03-26T05:45:24.399Z,20.16
2018-03-26T05:47:51.467Z,20.16
2018-03-26T05:50:18.699Z,20.15
2018-03-26T05:52:45.738Z,20.14
2018-03-26T05:55:12.756Z,20.12
2018-03-26T05:57:39.841Z,20.09
2018-03-26T06:00:06.936Z,20.07
2018-03-26T06:02:34.695Z,20.06
2018-03-26T06:05:01.959Z,20.06
2018-03-26T06:07:28.971Z,20.08
2018-03-26T06:09:56.304Z,20.08
2018-03-26T06:12:24.144Z,20.07
2018-03-26T06:14:52.166Z,20.04
2018-03-26T06:17:19.097Z,20.04
2018-03-26T06:19:47.852Z,20.08
2018-03-26T06:22:15.058Z,20.09
2018-03-26T06:24:42.107Z,20.11
2018-03-26T06:27:09.880Z,20.13
2018-03-26T06:29:37.781Z,20.13
2018-03-26T06:32:05.666Z,20.14
2018-03-26T06:34:32.598Z,20.16
2018-03-26T06:37:02.774Z,20.19
2018-03-26T06:39:30.625Z,20.20
2018-03-26T06:41:57.544Z,20.23
2018-03-26T06:44:24.553Z,20.23
2018-03-26T06:46:51.855Z,20.24
2018-03-26T06:49:18.907Z,20.25
2018-03-26T06:51:46.825Z,20.24
2018-03-26T06:54:14.620Z,20.25
2018-03-26T06:56:41.569Z,20.25
2018-03-26T06:59:08.552Z,20.25
2018-03-26T07:01:36.437Z,20.24
2018-03-26T07:04:03.431Z,20.26
2018-03-26T07:06:34.184Z,20.27
2018-03-26T07:09:01.241Z,20.27
2018-03-26T07:11:28.239Z,20.25
2018-03-26T07:13:55.250Z,20.24
2018-03-26T07:16:22.977Z,20.23
2018-03-26T07:18:50.020Z,20.20
2018-03-26T07:21:17.759Z,20.19
2018-03-26T07:23:45.580Z,20.20
2018-03-26T07:33:50.862Z,20.20
2018-03-26T07:36:20.618Z,20.23
2018-03-26T07:41:19.661Z,20.22
2018-03-26T07:51:19.519Z,20.21
2018-03-26T07:53:47.602Z,20.23
2018-03-26T07:58:47.336Z,20.30
2018-03-26T08:06:17.750Z,20.32
2018-03-26T08:16:18.707Z,20.30
2018-03-26T08:18:48.850Z,20.31
2018-03-26T08:28:53.483Z,20.24
2018-03-26T08:36:22.131Z,20.20
2018-03-26T08:46:20.165Z,20.21
2018-03-26T08:51:21.659Z,20.24
2018-03-26T08:56:23.602Z,20.26
2018-03-26T09:03:57.109Z,20.31
2018-03-26T09:06:27.133Z,20.32
2018-03-26T09:11:26.376Z,20.35
2018-03-26T09:23:58.844Z,20.30
2018-03-26T09:28:57.738Z,20.29
2018-03-26T09:36:28.708Z,20.25
2018-03-26T09:38:58.817Z,20.25
2018-03-26T09:43:57.413Z,20.23
2018-03-26T09:53:58.442Z,20.19
2018-03-26T10:01:31.908Z,20.21
2018-03-26T10:09:06.538Z,20.21
2018-03-26T10:11:36.794Z,20.21
2018-03-26T10:19:05.248Z,20.23
2018-03-26T10:24:03.929Z,20.21
2018-03-26T10:31:32.358Z,20.26
2018-03-26T10:36:31.019Z,20.32
2018-03-26T10:41:30.588Z,20.39
2018-03-26T10:48:58.891Z,20.41
2018-03-26T10:59:02.219Z,20.43
2018-03-26T11:04:00.890Z,20.44
2018-03-26T11:06:28.882Z,20.44
2018-03-26T11:14:00.441Z,20.42
2018-03-26T11:21:29.853Z,20.48
2018-03-26T11:23:59.921Z,20.52
2018-03-26T11:28:58.601Z,20.60
2018-03-26T11:44:03.254Z,20.64
2018-03-26T11:51:35.866Z,20.61
2018-03-26T11:56:41.000Z,20.62
2018-03-26T12:09:15.653Z,20.58
2018-03-26T12:14:14.498Z,20.61
2018-03-26T12:19:13.861Z,20.59
2018-03-26T12:26:42.623Z,20.50
2018-03-26T12:31:42.080Z,20.46
2018-03-26T12:36:40.660Z,20.43
2018-03-26T12:41:39.641Z,20.41
2018-03-26T12:46:38.401Z,20.38
2018-03-26T12:51:37.889Z,20.35
2018-03-26T13:01:38.199Z,20.36
2018-03-26T13:06:37.776Z,20.34
2018-03-26T13:19:09.736Z,20.30
2018-03-26T13:24:09.044Z,20.30
2018-03-26T13:29:07.896Z,20.30
2018-03-26T13:39:09.727Z,20.29
2018-03-26T13:41:42.167Z,20.29
2018-03-26T13:54:14.952Z,20.32
2018-03-26T13:59:13.922Z,20.29
2018-03-26T14:09:16.298Z,20.31
2018-03-26T14:14:17.766Z,20.31
2018-03-26T14:21:49.825Z,20.35
2018-03-26T14:24:19.680Z,20.34
2018-03-26T14:29:18.441Z,20.33
2018-03-26T14:34:17.549Z,20.35
2018-03-26T14:41:45.160Z,20.38
2018-03-26T14:44:12.118Z,20.38
2018-03-26T14:46:39.040Z,20.38
2018-03-26T14:49:05.966Z,20.38
2018-03-26T14:51:32.925Z,20.39
2018-03-26T14:56:30.161Z,20.38
2018-03-26T15:03:58.067Z,20.32
2018-03-26T15:11:29.117Z,20.25
2018-03-26T15:16:27.967Z,20.24
2018-03-26T15:21:26.625Z,20.21
2018-03-26T15:39:06.284Z,20.23
2018-03-26T15:46:34.195Z,20.24
2018-03-26T15:51:36.414Z,20.26
2018-03-26T15:54:08.809Z,20.25
2018-03-26T15:56:35.748Z,20.24
2018-03-26T15:59:02.680Z,20.22
2018-03-26T16:01:29.602Z,20.23
2018-03-26T16:03:59.729Z,20.21
2018-03-26T16:08:57.875Z,20.19
2018-03-26T16:24:03.884Z,20.19
2018-03-26T16:26:33.531Z,20.17
2018-03-26T16:34:03.648Z,20.19
2018-03-26T16:36:30.996Z,20.20
2018-03-26T16:43:56.526Z,20.21
2018-03-26T16:46:23.459Z,20.21
2018-03-26T16:48:50.404Z,20.22
2018-03-26T16:56:21.091Z,20.22
2018-03-26T17:01:20.404Z,20.22
2018-03-26T17:03:47.455Z,20.26
2018-03-26T17:06:14.314Z,20.32
2018-03-26T17:08:41.277Z,20.39
2018-03-26T17:11:11.666Z,20.42
2018-03-26T17:16:07.928Z,20.38
2018-03-26T17:18:34.888Z,20.43
2018-03-26T17:21:01.987Z,20.44
2018-03-26T17:23:28.926Z,20.44
2018-03-26T17:25:56.015Z,20.41
2018-03-26T17:36:08.960Z,20.37
2018-03-26T17:51:17.018Z,20.37
2018-03-26T18:21:43.566Z,20.37
2018-03-26T18:26:42.348Z,20.37
2018-03-26T18:31:38.807Z,20.29
2018-03-26T18:34:05.763Z,20.29
2018-03-26T18:39:10.928Z,20.39
2018-03-26T18:44:07.193Z,20.43
2018-03-26T18:46:34.221Z,20.43
2018-03-26T18:51:36.085Z,20.51
2018-03-26T18:54:06.231Z,20.49
2018-03-26T18:56:33.185Z,20.47
2018-03-26T19:01:32.308Z,20.44
2018-03-26T19:03:59.257Z,20.40
2018-03-26T19:06:26.457Z,20.38
2018-03-26T19:11:25.044Z,20.35
2018-03-26T19:13:51.986Z,20.34
2018-03-26T19:16:18.928Z,20.32
2018-03-26T19:18:45.877Z,20.31
